Terminal Aerodrome Forecast
Issued by NWS

Home | Current Version | Previous Version | Text Only | Print | Product List | Glossary On
Versions: 1 2 3 4 5 6 7 8 9 10 11 12 13 14 15
000
FTPA31 PHFO 270535
TAFMDY
TAF
PMDY 270535Z 2706/2806 35010KT P6SM VCSH SCT005 SCT025 BKN060
      TEMPO 2706/2710 5SM SHRA BR BKN025
     FM271000 VRB03KT P6SM SCT025 BKN040
     FM280400 16005KT P6SM SCT025 SCT040=

USA.gov is the U.S. government's official web portal to all federal, state and local government web resources and services.